Time;durP1;ratioP1;P1;durP2;ratioP2;P2;SDS_P1;SDS_P2;PMS_P1;PMS_P2;Temp;Humidity;BMP_temperature;BMP_pressure;BME280_temperature;BME280_humidity;BME280_pressure;Samples;Min_cycle;Max_cycle;Signal;HPM_P1;HPM_P2
2023/02/13 00:00:56;;;;;;;;;48.20;38.60;;;;;6.13;65.12;103315.84;1988540;28;3603328;-75
2023/02/13 00:02:07;;;;;;;;;52.60;39.00;;;;;6.14;65.35;103316.72;2008318;28;3623103;-76
2023/02/13 00:03:20;;;;;;;;;58.33;42.00;;;;;6.12;65.56;103318.41;1978508;28;3631475;-76
2023/02/13 00:04:31;;;;;;;;;43.33;35.67;;;;;6.12;65.51;103321.91;1969180;28;3588805;-76
2023/02/13 00:05:43;;;;;;;;;48.67;39.67;;;;;6.11;64.87;103314.91;2000731;28;3570060;-75
2023/02/13 00:06:55;;;;;;;;;53.00;41.67;;;;;6.12;65.39;103323.63;1998715;28;3603456;-76
2023/02/13 00:08:07;;;;;;;;;51.67;40.33;;;;;6.09;65.33;103319.22;2007283;28;3604413;-76
2023/02/13 00:09:19;;;;;;;;;56.67;43.67;;;;;6.10;65.25;103320.09;2011671;28;3615875;-76
2023/02/13 00:10:31;;;;;;;;;56.60;43.60;;;;;6.08;65.15;103315.72;2012293;28;3608542;-76
2023/02/13 00:11:43;;;;;;;;;54.00;43.00;;;;;6.08;65.24;103310.47;1981260;28;3601285;-76
2023/02/13 00:12:55;;;;;;;;;51.67;37.67;;;;;6.06;65.43;103319.97;1983623;28;3605464;-76
2023/02/13 00:14:07;;;;;;;;;55.40;43.20;;;;;6.06;65.58;103322.59;1989602;28;3598168;-76
2023/02/13 00:15:19;;;;;;;;;51.80;41.00;;;;;6.05;65.70;103320.81;1982994;28;3602647;-76
2023/02/13 00:16:32;;;;;;;;;52.00;42.00;;;;;6.05;65.10;103314.72;1982963;28;3609625;-76
2023/02/13 00:17:43;;;;;;;;;50.33;42.00;;;;;6.05;65.54;103319.94;1968084;28;3604451;-76
2023/02/13 00:18:55;;;;;;;;;53.33;40.33;;;;;6.03;65.20;103316.38;1967498;28;3620054;-76
2023/02/13 00:20:09;;;;;;;;;52.00;43.00;;;;;6.01;65.30;103311.13;1969822;28;3616894;-76
2023/02/13 00:21:20;;;;;;;;;52.33;42.00;;;;;6.01;65.35;103312.84;1961259;28;3602320;-76
2023/02/13 00:22:36;;;;;;;;;48.67;40.00;;;;;5.99;65.16;103319.75;1966246;28;3596081;-76
2023/02/13 00:23:47;;;;;;;;;48.33;39.33;;;;;5.98;65.39;103318.88;1952558;28;3586714;-76
2023/02/13 00:24:59;;;;;;;;;56.00;44.67;;;;;5.96;65.38;103324.06;2006822;28;3592945;-76
2023/02/13 00:26:13;;;;;;;;;54.67;41.67;;;;;5.96;65.66;103324.06;1993750;28;3603785;-75
2023/02/13 00:27:24;;;;;;;;;50.00;39.33;;;;;5.96;65.71;103316.22;1960405;28;3589811;-76
2023/02/13 00:28:37;;;;;;;;;53.00;42.00;;;;;5.95;65.56;103316.19;2010295;28;3602353;-76
2023/02/13 00:29:48;;;;;;;;;51.67;41.33;;;;;5.94;65.23;103312.69;1979044;28;3605432;-76
2023/02/13 00:31:07;;;;;;;;;58.00;44.00;;;;;5.94;65.41;103311.78;1984034;28;3610651;-76
2023/02/13 00:32:18;;;;;;;;;48.00;39.33;;;;;5.93;65.64;103316.13;1966745;28;3580433;-76
2023/02/13 00:33:30;;;;;;;;;50.00;37.40;;;;;5.93;65.52;103316.13;2011332;28;3601254;-76
2023/02/13 00:34:42;;;;;;;;;54.67;44.00;;;;;5.92;65.53;103313.47;1975115;28;3598152;-76
2023/02/13 00:36:08;;;;;;;;;50.00;41.00;;;;;5.92;65.73;103314.38;1975190;28;3604424;-76
2023/02/13 00:37:20;;;;;;;;;50.67;42.00;;;;;5.90;65.57;103305.59;1985343;28;3590876;-75
2023/02/13 00:38:32;;;;;;;;;52.00;41.00;;;;;5.90;65.69;103305.59;1998431;28;3597159;-75
2023/02/13 00:39:44;;;;;;;;;51.33;40.33;;;;;5.90;65.46;103307.34;1998355;28;3610662;-76
2023/02/13 00:40:56;;;;;;;;;44.40;39.20;;;;;5.90;66.12;103309.94;1988599;28;3576262;-76
2023/02/13 00:42:08;;;;;;;;;42.67;35.00;;;;;5.89;65.29;103309.06;2007631;28;3589524;-76
2023/02/13 00:43:19;;;;;;;;;52.00;42.67;;;;;5.88;66.04;103309.03;1999266;28;3573153;-76
2023/02/13 00:44:32;;;;;;;;;44.00;37.20;;;;;5.88;65.44;103311.63;2009149;28;3592904;-76
2023/02/13 00:45:43;;;;;;;;;55.00;41.67;;;;;5.88;65.60;103316.84;1984998;28;3614845;-76
2023/02/13 00:46:55;;;;;;;;;48.67;41.00;;;;;5.87;65.27;103315.06;1984537;28;3602339;-75
2023/02/13 00:48:07;;;;;;;;;50.00;41.33;;;;;5.87;65.52;103320.28;2009268;28;3588841;-76
2023/02/13 00:49:19;;;;;;;;;56.67;42.67;;;;;5.85;65.67;103318.50;1993836;28;3610663;-75
2023/02/13 00:50:31;;;;;;;;;51.67;42.00;;;;;5.84;65.51;103319.38;1966315;28;3587732;-76
2023/02/13 00:51:43;;;;;;;;;49.67;40.00;;;;;5.83;65.24;103314.97;1985601;28;3592979;-76
2023/02/13 00:52:55;;;;;;;;;54.33;41.67;;;;;5.82;65.79;103314.94;1996637;28;3614829;-75
2023/02/13 00:54:07;;;;;;;;;52.33;43.67;;;;;5.81;65.19;103316.66;1982343;28;3588812;-76
2023/02/13 00:55:19;;;;;;;;;48.80;38.80;;;;;5.80;65.44;103320.09;1994123;28;3575213;-76
2023/02/13 00:56:32;;;;;;;;;44.40;39.20;;;;;5.79;65.43;103315.75;2007511;28;3583537;-76
2023/02/13 00:57:42;;;;;;;;;51.00;41.50;;;;;5.79;64.95;103317.47;1986808;28;2860658;-76
2023/02/13 00:58:54;;;;;;;;;51.67;40.67;;;;;5.79;65.68;103317.47;1981018;28;3598169;-75
2023/02/13 01:00:07;;;;;;;;;53.33;41.33;;;;;5.77;65.76;103311.31;2001327;28;3613797;-76
2023/02/13 01:01:18;;;;;;;;;52.67;41.00;;;;;5.76;65.52;103313.03;1956668;28;3607596;-76
2023/02/13 01:02:30;;;;;;;;;55.67;42.33;;;;;5.77;65.28;103314.81;1981845;28;3609662;-76
2023/02/13 01:03:42;;;;;;;;;55.00;42.67;;;;;5.75;65.61;103313.88;1976233;28;3610686;-76
2023/02/13 01:04:54;;;;;;;;;49.67;39.00;;;;;5.74;65.69;103314.72;1977416;28;3590878;-76
2023/02/13 01:06:07;;;;;;;;;53.00;39.67;;;;;5.73;65.48;103307.72;2008671;28;3611722;-76
2023/02/13 01:07:18;;;;;;;;;51.67;40.00;;;;;5.72;65.54;103313.78;1969340;28;3602311;-76
2023/02/13 01:08:30;;;;;;;;;53.33;40.00;;;;;5.72;65.67;103306.84;2009052;28;3605455;-76
2023/02/13 01:09:43;;;;;;;;;53.00;42.33;;;;;5.71;65.51;103315.50;1977608;28;3608589;-76
2023/02/13 01:10:55;;;;;;;;;46.67;40.00;;;;;5.71;65.76;103317.22;1961893;28;3590861;-75
2023/02/13 01:12:06;;;;;;;;;54.33;41.00;;;;;5.70;65.76;103310.25;1992972;28;3610687;-76
2023/02/13 01:13:18;;;;;;;;;55.00;41.80;;;;;5.70;65.58;103312.88;2008858;28;3623111;-76
2023/02/13 01:14:30;;;;;;;;;49.33;39.00;;;;;5.69;65.57;103306.75;1984713;28;3591902;-76
2023/02/13 01:15:42;;;;;;;;;51.40;37.20;;;;;5.69;65.79;103305.88;2014055;28;3601730;-76
2023/02/13 01:16:54;;;;;;;;;52.33;40.33;;;;;5.67;65.45;103303.22;1992016;28;3586718;-76
2023/02/13 01:18:06;;;;;;;;;51.00;41.33;;;;;5.67;65.54;103302.34;2000273;28;3603905;-76
2023/02/13 01:19:18;;;;;;;;;53.67;42.00;;;;;5.67;65.33;103299.72;1984470;28;3601286;-76
2023/02/13 01:20:30;;;;;;;;;57.00;43.33;;;;;5.67;65.95;103310.16;2000858;28;3625233;-76
2023/02/13 01:21:43;;;;;;;;;50.67;39.00;;;;;5.66;65.36;103300.53;1972501;28;3589174;-76
2023/02/13 01:22:56;;;;;;;;;48.33;36.67;;;;;5.65;65.58;103296.19;1992768;28;3621081;-75
2023/02/13 01:24:07;;;;;;;;;52.33;40.00;;;;;5.65;65.35;103306.63;1969691;28;3598146;-76
2023/02/13 01:25:20;;;;;;;;;45.00;36.80;;;;;5.63;65.53;103303.94;2018839;28;3591862;-76
2023/02/13 01:26:31;;;;;;;;;49.33;39.00;;;;;5.63;65.75;103307.44;1960446;28;3593998;-76
2023/02/13 01:27:43;;;;;;;;;51.20;39.00;;;;;5.65;66.06;103309.22;1969240;28;3599174;-76
2023/02/13 01:28:56;;;;;;;;;55.00;40.67;;;;;5.63;65.65;103307.44;1990453;28;3620058;-76
2023/02/13 01:30:12;;;;;;;;;49.33;39.33;;;;;5.63;65.70;103307.44;1961565;28;3586674;-76
2023/02/13 01:31:23;;;;;;;;;44.50;37.00;;;;;5.64;65.67;103305.72;2000564;28;2854496;-76
2023/02/13 01:32:34;;;;;;;;;50.00;40.00;;;;;5.61;65.44;103309.13;1978122;28;2862784;-76
2023/02/13 01:33:46;;;;;;;;;47.33;39.33;;;;;5.61;65.55;103298.69;1982077;28;3578457;-76
2023/02/13 01:34:58;;;;;;;;;54.20;42.00;;;;;5.61;65.38;103303.91;2012262;28;3605405;-76
2023/02/13 01:36:12;;;;;;;;;49.33;39.00;;;;;5.60;65.53;103307.38;1987564;28;3587163;-75
2023/02/13 01:37:24;;;;;;;;;51.00;40.00;;;;;5.59;65.57;103304.72;1990742;28;3586702;-75
2023/02/13 01:38:36;;;;;;;;;53.00;40.20;;;;;5.58;65.87;103306.44;1997901;28;3598156;-75
2023/02/13 01:39:49;;;;;;;;;48.50;40.00;;;;;5.56;65.56;103300.28;1964075;28;2848138;-75
2023/02/13 01:41:01;;;;;;;;;50.67;38.33;;;;;5.56;65.34;103305.50;1964828;28;3597106;-76
2023/02/13 01:42:24;;;;;;;;;49.00;39.33;;;;;5.57;65.62;103306.38;2003088;28;3575301;-76
2023/02/13 01:43:49;;;;;;;;;49.00;40.67;;;;;5.56;65.63;103309.81;1991861;28;3576286;-76
2023/02/13 01:45:05;;;;;;;;;50.33;39.67;;;;;5.54;65.80;103307.19;1994478;28;3591904;-76
2023/02/13 01:46:31;;;;;;;;;46.50;37.00;;;;;5.54;65.48;103311.50;1993348;28;2871117;-75
2023/02/13 01:48:08;;;;;;;;;43.00;37.00;;;;;5.53;65.58;103302.81;1963747;28;2848167;-76
2023/02/13 01:49:23;;;;;;;;;51.00;40.33;;;;;5.52;65.44;103306.25;1956424;28;3599170;-75
2023/02/13 01:50:41;;;;;;;;;41.00;36.67;;;;;5.50;65.70;103303.63;1984858;28;3573173;-75
2023/02/13 01:51:55;;;;;;;;;50.67;41.00;;;;;5.50;65.71;103306.22;1990381;28;3586670;-75
2023/02/13 01:53:12;;;;;;;;;46.33;39.00;;;;;5.51;65.48;103307.09;1983586;28;3601301;-76
2023/02/13 01:54:29;;;;;;;;;47.00;38.50;;;;;5.49;65.61;103304.44;1958734;28;2857540;-76
2023/02/13 01:55:49;;;;;;;;;51.00;41.00;;;;;5.47;65.34;103300.91;1961477;28;2848194;-76
2023/02/13 01:57:04;;;;;;;;;56.00;43.50;;;;;5.47;65.43;103305.22;1985310;28;2864844;-76
2023/02/13 01:58:20;;;;;;;;;41.50;37.50;;;;;5.47;65.60;103305.22;1963021;28;2853394;-76
2023/02/13 01:59:42;;;;;;;;;56.00;42.33;;;;;5.46;65.58;103311.28;1996010;28;3600637;-76
2023/02/13 02:00:54;;;;;;;;;53.67;40.33;;;;;5.44;65.48;103303.41;1986771;28;3588817;-76
2023/02/13 02:02:06;;;;;;;;;50.33;42.00;;;;;5.45;65.74;103301.69;1977514;28;3594344;-75
2023/02/13 02:03:29;;;;;;;;;52.00;41.67;;;;;5.43;65.60;103303.38;1982415;28;3605454;-76
2023/02/13 02:04:42;;;;;;;;;52.50;40.50;;;;;5.42;65.66;103307.69;1992565;28;2857530;-76
2023/02/13 02:05:55;;;;;;;;;51.50;37.50;;;;;5.42;65.27;103301.59;1970219;28;2872120;-76
2023/02/13 02:07:12;;;;;;;;;49.33;39.00;;;;;5.40;65.73;103304.16;1962041;28;3588791;-75
2023/02/13 02:08:24;;;;;;;;;44.67;39.33;;;;;5.39;66.14;103303.28;1984036;28;3589832;-76
2023/02/13 02:09:40;;;;;;;;;55.33;44.00;;;;;5.38;65.53;103301.50;1976180;28;3600240;-76
2023/02/13 02:10:51;;;;;;;;;56.00;43.00;;;;;5.36;65.87;103294.50;1955143;28;2870056;-76
2023/02/13 02:12:27;;;;;;;;;49.33;39.00;;;;;5.38;65.86;103306.72;1954201;28;3598203;-76
2023/02/13 02:13:39;;;;;;;;;54.67;40.67;;;;;5.37;65.84;103302.34;1986018;28;3608611;-75
2023/02/13 02:14:53;;;;;;;;;56.00;44.67;;;;;5.35;65.87;103293.59;1978450;28;3602307;-76
2023/02/13 02:16:04;;;;;;;;;53.67;43.67;;;;;5.34;65.78;103303.97;1968622;28;3613801;-76
2023/02/13 02:17:16;;;;;;;;;53.00;42.00;;;;;5.33;65.84;103303.09;1982589;28;3608636;-75
2023/02/13 02:18:28;;;;;;;;;53.33;42.67;;;;;5.33;65.67;103305.72;2001245;28;3610162;-76
2023/02/13 02:19:53;;;;;;;;;50.67;41.67;;;;;5.33;65.78;103299.59;1977297;28;3598128;-76
2023/02/13 02:21:19;;;;;;;;;58.00;45.50;;;;;5.32;65.68;103301.31;1990150;28;2865913;-75
2023/02/13 02:22:48;;;;;;;;;57.00;43.67;;;;;5.31;65.74;103302.16;1961524;28;3625572;-75
2023/02/13 02:24:14;;;;;;;;;56.67;44.33;;;;;5.30;66.06;103300.41;1972854;28;3622113;-76
2023/02/13 02:25:38;;;;;;;;;51.33;42.00;;;;;5.28;65.75;103304.69;1962229;28;3603364;-76
2023/02/13 02:27:01;;;;;;;;;52.33;42.00;;;;;5.27;65.87;103302.91;1961597;28;3592931;-76
2023/02/13 02:28:46;;;;;;;;;56.00;43.00;;;;;5.27;65.81;103300.28;1992657;28;2863814;-76
2023/02/13 02:30:09;;;;;;;;;59.67;44.67;;;;;5.27;65.79;103300.28;1967149;28;3633595;-76
2023/02/13 02:31:45;;;;;;;;;59.00;43.00;;;;;5.25;65.78;103300.25;1969512;28;3633561;-75
2023/02/13 02:33:06;;;;;;;;;57.00;44.67;;;;;5.25;66.09;103300.25;1964142;28;3610733;-75
2023/02/13 02:34:35;;;;;;;;;55.50;41.50;;;;;5.24;65.84;103294.97;1956973;28;2859660;-76
2023/02/13 02:35:56;;;;;;;;;34.00;34.00;;;;;5.23;65.71;103295.81;1961077;28;2858613;-75
2023/02/13 02:37:23;;;;;;;;;55.67;43.33;;;;;5.22;65.91;103283.63;1965725;28;3604457;-76
2023/02/13 02:38:46;;;;;;;;;56.33;42.33;;;;;5.22;65.96;103281.00;1976105;28;3609628;-76
2023/02/13 02:40:07;;;;;;;;;57.33;43.33;;;;;5.22;65.77;103291.44;1954350;28;3606482;-76
2023/02/13 02:41:48;;;;;;;;;55.33;43.33;;;;;5.21;66.11;103287.06;1973027;28;3608556;-76
2023/02/13 02:43:19;;;;;;;;;51.33;40.33;;;;;5.18;65.71;103286.13;1965343;28;3596101;-76
2023/02/13 02:44:33;;;;;;;;;50.67;38.00;;;;;5.20;65.97;103285.28;1964941;28;3604410;-76
2023/02/13 02:45:56;;;;;;;;;57.67;44.00;;;;;5.17;65.78;103281.75;1966688;28;3629417;-76
2023/02/13 02:50:41;;;;;;;;;58.33;43.67;;;;;5.15;66.04;103286.03;1995577;28;3621088;-75
2023/02/13 02:52:17;;;;;;;;;52.33;43.00;;;;;5.15;65.91;103283.44;1961700;28;3601257;-75
2023/02/13 02:53:37;;;;;;;;;50.00;42.00;;;;;5.14;65.97;103286.88;1985617;28;3592921;-76
2023/02/13 02:55:07;;;;;;;;;51.00;42.00;;;;;5.13;66.06;103286.84;1991884;28;3584606;-76
2023/02/13 02:56:39;;;;;;;;;55.33;42.00;;;;;5.12;66.04;103288.53;1990500;28;3607520;-76
2023/02/13 03:06:17;;;;;;;;;55.33;43.67;;;;;5.05;66.06;103291.81;1961815;28;3612747;-76
2023/02/13 03:07:28;;;;;;;;;52.33;43.67;;;;;5.03;65.76;103288.25;1963878;28;3587087;-75
2023/02/13 03:13:46;;;;;;;;;39.50;34.00;;;;;5.00;66.27;103283.84;1996645;28;2837774;-76
2023/02/13 03:14:56;;;;;;;;;55.00;40.00;;;;;4.99;65.82;103292.47;1999334;28;2863809;-76
2023/02/13 03:23:12;;;;;;;;;54.00;44.00;;;;;4.95;65.98;103299.34;1967136;28;3604410;-76
2023/02/13 03:24:32;;;;;;;;;55.33;43.67;;;;;4.96;66.16;103300.22;1966834;28;3611685;-76
2023/02/13 03:25:52;;;;;;;;;52.67;41.67;;;;;4.96;66.03;103300.22;1968801;28;3593981;-76
2023/02/13 03:30:05;;;;;;;;;55.67;44.00;;;;;4.95;66.21;103299.34;1978357;28;3620039;-75
2023/02/13 03:31:29;;;;;;;;;54.00;42.67;;;;;4.94;66.29;103300.16;1961709;28;3603372;-75
2023/02/13 03:33:24;;;;;;;;;57.33;46.00;;;;;4.93;66.23;103292.28;1943956;28;3623143;-75
2023/02/13 03:38:04;;;;;;;;;47.33;39.67;;;;;4.89;66.36;103291.28;1970632;28;3599216;-76
2023/02/13 03:39:22;;;;;;;;;59.00;42.00;;;;;4.89;66.41;103286.09;1976951;28;2879431;-75
2023/02/13 03:42:30;;;;;;;;;57.00;44.00;;;;;4.89;66.37;103291.28;1954117;28;3627697;-75
2023/02/13 03:43:55;;;;;;;;;61.00;45.00;;;;;4.89;66.26;103291.28;1952934;28;3620039;-75
2023/02/13 03:46:50;;;;;;;;;56.67;45.00;;;;;4.89;66.23;103290.44;1960351;28;3591903;-76
2023/02/13 03:48:08;;;;;;;;;53.33;43.33;;;;;4.89;66.55;103296.50;1975468;28;3586754;-76
2023/02/13 03:50:58;;;;;;;;;52.67;43.00;;;;;4.86;66.17;103291.22;1980137;28;3603381;-76
2023/02/13 03:52:21;;;;;;;;;48.67;40.00;;;;;4.86;66.02;103293.81;1951682;28;3574291;-76
2023/02/13 03:53:36;;;;;;;;;55.33;44.67;;;;;4.86;66.16;103286.00;1978336;28;3612755;-76
2023/02/13 03:59:35;;;;;;;;;54.67;42.67;;;;;4.83;66.11;103291.13;1959750;28;3603345;-75
2023/02/13 04:00:54;;;;;;;;;52.00;39.00;;;;;4.83;66.14;103293.72;1960059;28;3611720;-76
2023/02/13 04:02:16;;;;;;;;;55.67;40.33;;;;;4.82;66.35;103292.81;1959741;28;3608564;-76
2023/02/13 04:03:49;;;;;;;;;56.00;42.00;;;;;4.82;66.22;103294.53;1952872;28;3609618;-76
2023/02/13 04:05:07;;;;;;;;;51.00;41.67;;;;;4.83;66.12;103296.31;1984101;28;3600248;-76
2023/02/13 04:06:24;;;;;;;;;51.67;41.33;;;;;4.81;66.30;103293.69;1960155;28;3589835;-76
2023/02/13 04:07:34;;;;;;;;;52.00;41.00;;;;;4.80;66.13;103293.59;1983468;28;2669043;-76
2023/02/13 04:08:46;;;;;;;;;62.00;47.67;;;;;4.79;66.22;103295.31;2008397;28;3629378;-76
2023/02/13 04:10:03;;;;;;;;;53.33;41.00;;;;;4.79;66.13;103287.50;1971677;28;3600255;-76
2023/02/13 04:11:32;;;;;;;;;53.67;43.33;;;;;4.78;66.30;103290.06;1960271;28;3606819;-76
2023/02/13 04:13:07;;;;;;;;;58.33;43.67;;;;;4.79;65.93;103294.47;1959804;28;3623138;-76
2023/02/13 04:14:24;;;;;;;;;49.33;40.00;;;;;4.78;66.36;103295.28;1959817;28;3590878;-76
2023/02/13 04:15:42;;;;;;;;;51.00;40.33;;;;;4.75;66.13;103292.56;1982702;28;3584639;-76
2023/02/13 04:17:02;;;;;;;;;53.00;43.00;;;;;4.76;66.31;103299.56;1986726;28;2855466;-76
2023/02/13 04:18:19;;;;;;;;;55.00;40.67;;;;;4.75;66.03;103303.00;1967520;28;3601284;-76
2023/02/13 04:19:32;;;;;;;;;55.33;44.00;;;;;4.74;66.22;103302.13;1959925;28;3612719;-75
2023/02/13 04:20:42;;;;;;;;;54.50;41.00;;;;;4.73;66.79;103298.63;1984317;28;2863791;-76
2023/02/13 04:21:57;;;;;;;;;37.67;34.00;;;;;4.75;66.22;103303.00;1969692;28;3586082;-76
2023/02/13 04:23:10;;;;;;;;;51.67;39.67;;;;;4.73;66.12;103301.25;1973386;28;3610675;-76
2023/02/13 04:24:23;;;;;;;;;55.33;41.67;;;;;4.73;65.90;103297.75;1953089;28;3597138;-76
2023/02/13 04:25:37;;;;;;;;;53.67;41.67;;;;;4.72;65.97;103302.06;1958050;28;3597111;-76
2023/02/13 04:26:49;;;;;;;;;54.00;43.00;;;;;4.73;66.10;103300.34;1983769;28;3589815;-75
2023/02/13 04:28:01;;;;;;;;;56.00;43.33;;;;;4.73;66.66;103300.34;1992620;28;3624179;-75
2023/02/13 04:29:12;;;;;;;;;56.00;44.67;;;;;4.72;66.45;103302.06;1974859;28;3599179;-76
2023/02/13 04:30:25;;;;;;;;;61.00;44.00;;;;;4.72;66.02;103299.47;2003863;28;3639759;-76
2023/02/13 04:31:37;;;;;;;;;53.67;45.00;;;;;4.72;66.15;103298.56;1977558;28;3603393;-75
2023/02/13 04:32:48;;;;;;;;;50.00;43.00;;;;;4.71;65.87;103297.72;1959400;28;3585665;-76
2023/02/13 04:34:00;;;;;;;;;56.00;42.33;;;;;4.69;66.02;103296.75;1990948;28;3608560;-75
2023/02/13 04:35:13;;;;;;;;;56.00;44.33;;;;;4.69;65.88;103299.34;1998734;28;3609602;-75
2023/02/13 04:36:25;;;;;;;;;50.33;39.67;;;;;4.68;66.29;103296.69;1959753;28;3616972;-76
2023/02/13 04:37:37;;;;;;;;;60.00;45.67;;;;;4.68;66.01;103296.69;1957177;28;3638791;-75
2023/02/13 04:38:49;;;;;;;;;56.33;43.33;;;;;4.68;66.15;103300.19;1974770;28;3603379;-75
2023/02/13 04:40:01;;;;;;;;;53.67;41.33;;;;;4.67;66.19;103298.41;1958435;28;3595020;-75
2023/02/13 04:41:13;;;;;;;;;58.00;44.67;;;;;4.67;66.15;103295.81;2005934;28;3603346;-75
2023/02/13 04:42:25;;;;;;;;;53.33;42.67;;;;;4.68;66.14;103299.31;1969518;28;3590857;-75
2023/02/13 04:43:37;;;;;;;;;55.00;43.20;;;;;4.67;66.12;103294.91;1972100;28;3597095;-75
2023/02/13 04:44:49;;;;;;;;;55.67;45.00;;;;;4.68;65.91;103301.91;1996591;28;3600228;-76
2023/02/13 04:46:01;;;;;;;;;56.67;43.00;;;;;4.67;65.91;103303.63;2006853;28;3614843;-75
2023/02/13 04:47:13;;;;;;;;;56.33;45.33;;;;;4.66;66.03;103299.25;1975749;28;3618973;-75
2023/02/13 04:48:25;;;;;;;;;59.33;45.33;;;;;4.66;65.81;103304.47;1975972;28;3635631;-76
2023/02/13 04:49:37;;;;;;;;;51.00;42.00;;;;;4.66;65.99;103295.78;1975084;28;3591914;-76
2023/02/13 04:50:49;;;;;;;;;59.00;45.33;;;;;4.65;66.19;103296.59;1989234;28;3630536;-76
2023/02/13 04:52:00;;;;;;;;;52.67;41.33;;;;;4.63;65.94;103293.94;1966170;28;3592246;-75
2023/02/13 04:53:12;;;;;;;;;55.67;44.67;;;;;4.64;65.96;103300.03;1993614;28;3610656;-76
2023/02/13 04:54:24;;;;;;;;;57.67;46.67;;;;;4.63;65.85;103293.94;1974473;28;3608946;-76
2023/02/13 04:55:36;;;;;;;;;54.67;42.67;;;;;4.61;65.92;103293.91;1975636;28;3599202;-76
2023/02/13 04:56:48;;;;;;;;;51.67;41.00;;;;;4.62;65.88;103292.16;1974250;28;3577332;-75
2023/02/13 04:58:00;;;;;;;;;57.33;44.67;;;;;4.61;66.28;103291.31;1999040;28;3582546;-76
2023/02/13 04:59:12;;;;;;;;;54.00;41.33;;;;;4.60;66.17;103292.13;1999447;28;3601292;-76
2023/02/13 05:00:26;;;;;;;;;50.00;40.33;;;;;4.60;65.97;103293.84;1996327;28;3584600;-76
2023/02/13 05:01:38;;;;;;;;;52.33;41.33;;;;;4.60;66.17;103296.44;1973891;28;3586721;-76
2023/02/13 05:02:51;;;;;;;;;53.33;43.33;;;;;4.60;65.96;103293.84;1992838;28;3605467;-76
2023/02/13 05:04:02;;;;;;;;;55.33;43.00;;;;;4.59;66.47;103292.94;1957175;28;3607875;-76
2023/02/13 05:05:14;;;;;;;;;54.67;43.00;;;;;4.58;65.93;103291.19;1969856;28;3614820;-75
2023/02/13 05:06:26;;;;;;;;;53.67;43.00;;;;;4.58;66.11;103288.59;1968266;28;3605550;-76
2023/02/13 05:07:39;;;;;;;;;52.33;42.67;;;;;4.57;65.65;103293.72;1976032;28;3606508;-76
2023/02/13 05:08:51;;;;;;;;;56.00;45.00;;;;;4.56;66.16;103286.75;1956728;28;3614925;-76
2023/02/13 05:10:03;;;;;;;;;55.00;43.00;;;;;4.56;65.98;103291.97;1979148;28;3608548;-75
2023/02/13 05:11:15;;;;;;;;;54.33;43.67;;;;;4.56;66.03;103286.75;1967547;28;3600609;-76
2023/02/13 05:12:27;;;;;;;;;56.67;43.33;;;;;4.56;66.07;103281.56;1977630;28;3611714;-76
2023/02/13 05:13:39;;;;;;;;;54.00;42.00;;;;;4.55;65.81;103283.25;1972757;28;3611765;-76
2023/02/13 05:14:51;;;;;;;;;54.00;42.67;;;;;4.54;66.04;103281.50;1975391;28;3609609;-76
2023/02/13 05:16:03;;;;;;;;;54.40;38.80;;;;;4.55;65.94;103282.38;1979872;28;3615808;-75
2023/02/13 05:17:15;;;;;;;;;56.00;40.67;;;;;4.55;66.04;103291.06;1975449;28;3612742;-76
2023/02/13 05:18:27;;;;;;;;;57.00;44.67;;;;;4.54;66.06;103283.22;1979474;28;3588794;-76
2023/02/13 05:19:39;;;;;;;;;52.67;41.33;;;;;4.53;65.67;103289.25;1981813;28;3595043;-75
2023/02/13 05:23:51;;;;;;;;;50.00;41.00;;;;;4.50;66.09;103288.31;1975835;28;3575269;-76
2023/02/13 05:25:03;;;;;;;;;55.33;46.00;;;;;4.49;65.74;103283.94;2001950;28;3606484;-76
2023/02/13 05:26:15;;;;;;;;;51.33;41.00;;;;;4.49;65.84;103281.31;1971073;28;3585716;-76
2023/02/13 05:27:27;;;;;;;;;51.67;41.00;;;;;4.48;65.66;103282.19;1991778;28;3592029;-76
2023/02/13 05:30:09;;;;;;;;;52.00;42.00;;;;;4.47;65.78;103280.41;1984119;28;3578354;-76
2023/02/13 05:31:20;;;;;;;;;60.00;44.00;;;;;4.45;65.94;103282.06;1984207;28;3638205;-75
2023/02/13 05:32:32;;;;;;;;;55.60;42.60;;;;;4.44;66.22;103277.72;1982508;28;3596025;-75
2023/02/13 05:33:44;;;;;;;;;54.67;44.00;;;;;4.45;66.25;103281.16;1998208;28;3600239;-75
2023/02/13 05:34:56;;;;;;;;;55.33;44.67;;;;;4.44;66.50;103276.81;1976932;28;3597091;-76
2023/02/13 05:36:08;;;;;;;;;56.67;45.00;;;;;4.44;66.33;103279.41;1995934;28;3623177;-76
2023/02/13 05:37:20;;;;;;;;;54.67;43.00;;;;;4.43;66.38;103281.13;1971337;28;3600313;-76
2023/02/13 05:38:32;;;;;;;;;53.00;41.00;;;;;4.43;66.13;103281.13;1978150;28;3588770;-75
2023/02/13 05:39:44;;;;;;;;;51.33;40.00;;;;;4.43;66.08;103288.06;1996847;28;3584687;-75
2023/02/13 05:41:00;;;;;;;;;56.00;43.67;;;;;4.42;66.10;103287.16;1998640;28;3607519;-76
2023/02/13 05:42:10;;;;;;;;;53.50;43.00;;;;;4.41;65.88;103289.72;1962137;28;2856540;-75
2023/02/13 05:43:22;;;;;;;;;52.00;42.67;;;;;4.41;66.43;103285.41;1996923;28;3592990;-75
2023/02/13 05:44:35;;;;;;;;;55.67;42.33;;;;;4.38;66.11;103293.09;1998924;28;3611042;-75
2023/02/13 05:45:47;;;;;;;;;53.67;45.67;;;;;4.38;65.91;103285.28;1959334;28;3578346;-76
2023/02/13 05:46:58;;;;;;;;;51.67;43.67;;;;;4.39;66.08;103287.06;1977071;28;3597230;-76
2023/02/13 05:48:10;;;;;;;;;54.67;44.33;;;;;4.38;66.14;103287.91;1996998;28;3607535;-76
2023/02/13 05:49:22;;;;;;;;;56.33;44.33;;;;;4.37;66.13;103286.16;1965816;28;3611702;-76
2023/02/13 05:50:34;;;;;;;;;56.00;44.00;;;;;4.37;65.96;103286.16;1971597;28;3611705;-76
2023/02/13 05:51:46;;;;;;;;;54.33;44.00;;;;;4.36;66.15;103287.84;1967719;28;3608564;-76
2023/02/13 05:52:58;;;;;;;;;53.33;44.33;;;;;4.37;66.27;103288.75;1967757;28;3603370;-75
2023/02/13 05:54:10;;;;;;;;;56.33;44.00;;;;;4.36;66.13;103286.97;1976862;28;3616889;-75
2023/02/13 05:55:22;;;;;;;;;55.00;43.67;;;;;4.34;66.17;103286.94;1975159;28;3603353;-75
2023/02/13 05:56:34;;;;;;;;;55.33;44.33;;;;;4.33;66.09;103279.94;1974851;28;3612712;-75
2023/02/13 05:57:46;;;;;;;;;51.67;41.00;;;;;4.35;66.21;103282.56;1973792;28;3590886;-75
2023/02/13 05:58:58;;;;;;;;;52.67;44.00;;;;;4.34;66.04;103286.94;2000773;28;3609598;-75
2023/02/13 06:00:10;;;;;;;;;59.33;47.00;;;;;4.34;66.28;103284.31;1959466;28;3610652;-75
2023/02/13 06:01:23;;;;;;;;;64.00;49.67;;;;;4.35;66.47;103287.78;1960153;28;3629410;-75
2023/02/13 06:02:34;;;;;;;;;53.67;42.33;;;;;4.33;66.31;103281.63;1969952;28;3612054;-75
2023/02/13 06:03:46;;;;;;;;;57.33;47.33;;;;;4.32;66.51;103288.56;1979270;28;3598141;-75
2023/02/13 06:04:58;;;;;;;;;53.67;44.33;;;;;4.31;66.13;103284.19;1985202;28;3601651;-75
2023/02/13 06:06:09;;;;;;;;;58.60;45.00;;;;;4.31;66.05;103288.53;1955532;28;2875334;-75
2023/02/13 06:07:21;;;;;;;;;58.33;45.33;;;;;4.31;66.18;103285.91;1991088;28;3611688;-75
2023/02/13 06:08:33;;;;;;;;;60.00;45.67;;;;;4.32;66.59;103287.69;1972583;28;3631487;-75
2023/02/13 06:09:45;;;;;;;;;54.33;43.33;;;;;4.31;66.28;103278.09;1967030;28;3602311;-75
2023/02/13 06:10:57;;;;;;;;;56.33;45.00;;;;;4.31;66.59;103285.91;1984461;28;3588767;-75
2023/02/13 06:12:09;;;;;;;;;56.33;45.00;;;;;4.31;66.45;103285.91;1972794;28;3603395;-75
2023/02/13 06:13:21;;;;;;;;;55.40;46.20;;;;;4.30;66.55;103295.44;1966151;28;3583534;-75
2023/02/13 06:14:33;;;;;;;;;61.00;47.00;;;;;4.30;66.37;103289.38;1992534;28;3624185;-75
2023/02/13 06:15:45;;;;;;;;;51.67;43.33;;;;;4.30;66.37;103289.38;1971465;28;3585649;-75
2023/02/13 06:16:57;;;;;;;;;56.33;41.67;;;;;4.30;66.67;103289.38;1992996;28;3614826;-75
2023/02/13 06:18:09;;;;;;;;;62.00;46.67;;;;;4.30;66.48;103297.19;1976031;28;3616930;-75
2023/02/13 06:19:21;;;;;;;;;52.00;42.00;;;;;4.29;66.32;103296.28;1965054;28;3596108;-75
2023/02/13 06:20:33;;;;;;;;;58.67;45.00;;;;;4.28;66.47;103292.78;2002079;28;3622204;-75
2023/02/13 06:21:45;;;;;;;;;59.33;46.00;;;;;4.28;66.74;103298.00;1959335;28;3612774;-75